Highland Township, Michigan
Current Conditions -  °F | °C
As of 9:53 PM on Monday 22 Dec 2014 (Local Time) from KPTK Reporting Station
Broken Clouds Broken Clouds  
Wind Chill: 25°   Ceiling: 10000
Heat Index: 33°   Visibility: 7mi
Dew Point: 30°   Wind: 9mph
Humidity: 89%   Direction: 100°E
Pressure: 29.87"   Gusts: NA
Location:  42.6632°N, 83.6457°W
Report Text: KPTK 230253Z 10008KT 7SM FEW080 BKN100 BKN110 BKN140 01/M01 A2987 RMK AO2 SLP126 T00061011 58013 $
Loading
Personal Weather Stations






























Interactive Weather Map New forecast layout! Learn more

10-Day Weather Forecast

Advertisements
Track Severe Weather on mobile